sensor_id;sensor_type;location;lat;lon;timestamp;P1;durP1;ratioP1;P2;durP2;ratioP2
20090;SDS011;10205;49.678;6.560;2022-09-13T00:01:17;1.27;;;1.17;;
20090;SDS011;10205;49.678;6.560;2022-09-13T00:03:45;2.65;;;1.30;;
20090;SDS011;10205;49.678;6.560;2022-09-13T00:06:13;1.63;;;1.30;;
20090;SDS011;10205;49.678;6.560;2022-09-13T00:08:43;1.85;;;1.30;;
20090;SDS011;10205;49.678;6.560;2022-09-13T00:11:16;1.52;;;1.23;;
20090;SDS011;10205;49.678;6.560;2022-09-13T00:13:46;5.97;;;1.67;;
20090;SDS011;10205;49.678;6.560;2022-09-13T00:16:14;1.20;;;1.10;;
20090;SDS011;10205;49.678;6.560;2022-09-13T00:18:42;1.95;;;1.50;;
20090;SDS011;10205;49.678;6.560;2022-09-13T00:21:11;1.30;;;1.20;;
20090;SDS011;10205;49.678;6.560;2022-09-13T00:23:42;1.35;;;1.25;;
20090;SDS011;10205;49.678;6.560;2022-09-13T00:26:12;1.15;;;1.05;;
20090;SDS011;10205;49.678;6.560;2022-09-13T00:28:44;2.88;;;1.20;;
20090;SDS011;10205;49.678;6.560;2022-09-13T00:31:14;1.48;;;1.38;;
20090;SDS011;10205;49.678;6.560;2022-09-13T00:33:41;1.75;;;1.20;;
20090;SDS011;10205;49.678;6.560;2022-09-13T00:36:09;1.40;;;1.30;;
20090;SDS011;10205;49.678;6.560;2022-09-13T00:38:39;1.33;;;1.20;;
20090;SDS011;10205;49.678;6.560;2022-09-13T00:41:09;1.73;;;1.58;;
20090;SDS011;10205;49.678;6.560;2022-09-13T00:43:43;1.50;;;1.40;;
20090;SDS011;10205;49.678;6.560;2022-09-13T00:46:16;1.50;;;1.40;;
20090;SDS011;10205;49.678;6.560;2022-09-13T00:48:56;1.13;;;1.02;;
20090;SDS011;10205;49.678;6.560;2022-09-13T00:51:29;2.03;;;1.35;;
20090;SDS011;10205;49.678;6.560;2022-09-13T00:53:57;1.42;;;1.17;;
20090;SDS011;10205;49.678;6.560;2022-09-13T00:56:27;1.52;;;1.40;;
20090;SDS011;10205;49.678;6.560;2022-09-13T00:59:03;1.50;;;1.40;;
20090;SDS011;10205;49.678;6.560;2022-09-13T01:01:36;2.40;;;1.15;;
20090;SDS011;10205;49.678;6.560;2022-09-13T01:04:09;1.55;;;1.38;;
20090;SDS011;10205;49.678;6.560;2022-09-13T01:06:37;3.63;;;1.48;;
20090;SDS011;10205;49.678;6.560;2022-09-13T01:09:07;2.30;;;1.25;;
20090;SDS011;10205;49.678;6.560;2022-09-13T01:11:39;2.35;;;1.45;;
20090;SDS011;10205;49.678;6.560;2022-09-13T01:14:17;2.20;;;1.10;;
20090;SDS011;10205;49.678;6.560;2022-09-13T01:16:46;1.30;;;1.20;;
20090;SDS011;10205;49.678;6.560;2022-09-13T01:19:14;1.92;;;1.15;;
20090;SDS011;10205;49.678;6.560;2022-09-13T01:25:15;1.60;;;1.48;;
20090;SDS011;10205;49.678;6.560;2022-09-13T01:31:55;1.42;;;1.10;;
20090;SDS011;10205;49.678;6.560;2022-09-13T01:34:34;1.42;;;1.13;;
20090;SDS011;10205;49.678;6.560;2022-09-13T01:37:23;2.00;;;1.20;;
20090;SDS011;10205;49.678;6.560;2022-09-13T01:40:11;3.95;;;1.75;;
20090;SDS011;10205;49.678;6.560;2022-09-13T01:43:01;1.23;;;1.10;;
20090;SDS011;10205;49.678;6.560;2022-09-13T01:45:54;2.28;;;1.20;;
20090;SDS011;10205;49.678;6.560;2022-09-13T01:48:35;2.17;;;1.35;;
20090;SDS011;10205;49.678;6.560;2022-09-13T01:51:19;2.45;;;1.10;;
20090;SDS011;10205;49.678;6.560;2022-09-13T01:53:57;1.83;;;1.38;;
20090;SDS011;10205;49.678;6.560;2022-09-13T01:56:37;1.02;;;0.98;;
20090;SDS011;10205;49.678;6.560;2022-09-13T01:59:15;2.15;;;1.48;;
20090;SDS011;10205;49.678;6.560;2022-09-13T02:01:51;1.75;;;1.45;;
20090;SDS011;10205;49.678;6.560;2022-09-13T02:04:26;1.30;;;1.20;;
20090;SDS011;10205;49.678;6.560;2022-09-13T02:07:02;1.25;;;1.15;;
20090;SDS011;10205;49.678;6.560;2022-09-13T02:09:38;1.52;;;1.35;;
20090;SDS011;10205;49.678;6.560;2022-09-13T02:12:12;1.23;;;1.13;;
20090;SDS011;10205;49.678;6.560;2022-09-13T02:14:44;1.60;;;1.50;;
20090;SDS011;10205;49.678;6.560;2022-09-13T02:17:19;3.63;;;1.70;;
20090;SDS011;10205;49.678;6.560;2022-09-13T02:19:52;2.00;;;1.50;;
20090;SDS011;10205;49.678;6.560;2022-09-13T02:22:25;1.40;;;1.30;;
20090;SDS011;10205;49.678;6.560;2022-09-13T02:24:58;2.38;;;1.23;;
20090;SDS011;10205;49.678;6.560;2022-09-13T02:27:34;1.40;;;1.30;;
20090;SDS011;10205;49.678;6.560;2022-09-13T02:30:07;2.25;;;1.20;;
20090;SDS011;10205;49.678;6.560;2022-09-13T02:32:38;1.40;;;1.30;;
20090;SDS011;10205;49.678;6.560;2022-09-13T02:35:12;1.55;;;1.40;;
20090;SDS011;10205;49.678;6.560;2022-09-13T02:37:56;2.05;;;1.35;;
20090;SDS011;10205;49.678;6.560;2022-09-13T02:40:31;1.40;;;1.30;;
20090;SDS011;10205;49.678;6.560;2022-09-13T02:43:08;2.28;;;1.52;;
20090;SDS011;10205;49.678;6.560;2022-09-13T02:45:41;1.70;;;1.20;;
20090;SDS011;10205;49.678;6.560;2022-09-13T02:48:17;1.77;;;1.38;;
20090;SDS011;10205;49.678;6.560;2022-09-13T02:50:57;1.40;;;1.30;;
20090;SDS011;10205;49.678;6.560;2022-09-13T02:53:33;1.58;;;1.40;;
20090;SDS011;10205;49.678;6.560;2022-09-13T02:56:11;1.60;;;1.50;;
20090;SDS011;10205;49.678;6.560;2022-09-13T02:58:49;1.83;;;1.25;;
20090;SDS011;10205;49.678;6.560;2022-09-13T03:01:26;1.70;;;1.50;;
20090;SDS011;10205;49.678;6.560;2022-09-13T03:03:57;1.50;;;1.40;;
20090;SDS011;10205;49.678;6.560;2022-09-13T03:06:27;1.85;;;1.45;;
20090;SDS011;10205;49.678;6.560;2022-09-13T03:08:55;1.42;;;1.30;;
20090;SDS011;10205;49.678;6.560;2022-09-13T03:11:30;2.78;;;1.73;;
20090;SDS011;10205;49.678;6.560;2022-09-13T03:14:17;2.95;;;1.42;;
20090;SDS011;10205;49.678;6.560;2022-09-13T03:17:04;1.30;;;1.20;;
20090;SDS011;10205;49.678;6.560;2022-09-13T03:19:47;1.45;;;1.35;;
20090;SDS011;10205;49.678;6.560;2022-09-13T03:22:38;1.90;;;1.58;;
20090;SDS011;10205;49.678;6.560;2022-09-13T03:25:26;1.42;;;1.33;;
20090;SDS011;10205;49.678;6.560;2022-09-13T03:28:13;1.45;;;1.35;;
20090;SDS011;10205;49.678;6.560;2022-09-13T03:30:54;1.67;;;1.38;;
20090;SDS011;10205;49.678;6.560;2022-09-13T03:33:33;1.35;;;1.25;;
20090;SDS011;10205;49.678;6.560;2022-09-13T03:36:15;3.15;;;1.33;;
20090;SDS011;10205;49.678;6.560;2022-09-13T03:38:53;1.30;;;1.20;;
20090;SDS011;10205;49.678;6.560;2022-09-13T03:41:30;1.65;;;1.33;;
20090;SDS011;10205;49.678;6.560;2022-09-13T03:44:05;4.25;;;1.40;;
20090;SDS011;10205;49.678;6.560;2022-09-13T03:46:39;1.67;;;1.58;;
20090;SDS011;10205;49.678;6.560;2022-09-13T03:49:10;3.38;;;1.58;;
20090;SDS011;10205;49.678;6.560;2022-09-13T03:51:42;6.07;;;2.10;;
20090;SDS011;10205;49.678;6.560;2022-09-13T03:54:15;2.00;;;1.65;;
20090;SDS011;10205;49.678;6.560;2022-09-13T03:59:37;1.42;;;1.33;;
20090;SDS011;10205;49.678;6.560;2022-09-13T04:02:09;4.25;;;1.77;;
20090;SDS011;10205;49.678;6.560;2022-09-13T04:04:36;2.10;;;1.70;;
20090;SDS011;10205;49.678;6.560;2022-09-13T04:07:05;1.92;;;1.60;;
20090;SDS011;10205;49.678;6.560;2022-09-13T04:09:34;2.60;;;1.52;;
20090;SDS011;10205;49.678;6.560;2022-09-13T04:12:01;2.15;;;1.65;;
20090;SDS011;10205;49.678;6.560;2022-09-13T04:14:29;1.38;;;1.27;;
20090;SDS011;10205;49.678;6.560;2022-09-13T04:16:57;1.60;;;1.50;;
20090;SDS011;10205;49.678;6.560;2022-09-13T04:19:24;1.95;;;1.75;;
20090;SDS011;10205;49.678;6.560;2022-09-13T04:21:52;1.50;;;1.40;;
20090;SDS011;10205;49.678;6.560;2022-09-13T04:24:22;1.48;;;1.38;;
20090;SDS011;10205;49.678;6.560;2022-09-13T04:26:53;1.65;;;1.55;;
20090;SDS011;10205;49.678;6.560;2022-09-13T04:29:22;3.63;;;1.80;;
20090;SDS011;10205;49.678;6.560;2022-09-13T04:31:51;2.15;;;1.40;;
20090;SDS011;10205;49.678;6.560;2022-09-13T04:34:22;2.20;;;1.48;;
20090;SDS011;10205;49.678;6.560;2022-09-13T04:36:50;1.83;;;1.40;;
20090;SDS011;10205;49.678;6.560;2022-09-13T04:39:18;1.48;;;1.38;;
20090;SDS011;10205;49.678;6.560;2022-09-13T04:41:47;2.78;;;1.50;;
20090;SDS011;10205;49.678;6.560;2022-09-13T04:44:17;3.55;;;1.60;;
20090;SDS011;10205;49.678;6.560;2022-09-13T04:46:45;1.50;;;1.40;;
20090;SDS011;10205;49.678;6.560;2022-09-13T04:49:13;1.95;;;1.30;;
20090;SDS011;10205;49.678;6.560;2022-09-13T04:51:41;1.80;;;1.70;;
20090;SDS011;10205;49.678;6.560;2022-09-13T04:54:09;5.28;;;2.17;;
20090;SDS011;10205;49.678;6.560;2022-09-13T04:56:37;1.67;;;1.45;;
20090;SDS011;10205;49.678;6.560;2022-09-13T04:59:04;2.25;;;1.50;;
20090;SDS011;10205;49.678;6.560;2022-09-13T05:01:33;1.73;;;1.40;;
20090;SDS011;10205;49.678;6.560;2022-09-13T05:04:01;1.40;;;1.30;;
20090;SDS011;10205;49.678;6.560;2022-09-13T05:06:29;1.80;;;1.50;;
20090;SDS011;10205;49.678;6.560;2022-09-13T05:08:56;2.50;;;1.60;;
20090;SDS011;10205;49.678;6.560;2022-09-13T05:11:24;1.63;;;1.30;;
20090;SDS011;10205;49.678;6.560;2022-09-13T05:13:54;2.25;;;1.33;;
20090;SDS011;10205;49.678;6.560;2022-09-13T05:16:27;1.67;;;1.58;;
20090;SDS011;10205;49.678;6.560;2022-09-13T05:18:58;1.30;;;1.20;;
20090;SDS011;10205;49.678;6.560;2022-09-13T05:21:29;1.45;;;1.35;;
20090;SDS011;10205;49.678;6.560;2022-09-13T05:23:59;19.02;;;2.10;;
20090;SDS011;10205;49.678;6.560;2022-09-13T05:26:26;2.03;;;1.50;;
20090;SDS011;10205;49.678;6.560;2022-09-13T05:28:56;1.88;;;1.50;;
20090;SDS011;10205;49.678;6.560;2022-09-13T05:31:24;1.75;;;1.65;;
20090;SDS011;10205;49.678;6.560;2022-09-13T05:33:55;2.75;;;1.52;;
20090;SDS011;10205;49.678;6.560;2022-09-13T05:36:26;1.73;;;1.50;;
20090;SDS011;10205;49.678;6.560;2022-09-13T05:38:54;4.18;;;1.95;;
20090;SDS011;10205;49.678;6.560;2022-09-13T05:41:22;2.13;;;1.50;;
20090;SDS011;10205;49.678;6.560;2022-09-13T05:43:49;2.83;;;1.95;;
20090;SDS011;10205;49.678;6.560;2022-09-13T05:46:17;5.32;;;2.15;;
20090;SDS011;10205;49.678;6.560;2022-09-13T05:48:47;3.95;;;1.33;;
20090;SDS011;10205;49.678;6.560;2022-09-13T05:51:16;1.63;;;1.52;;
20090;SDS011;10205;49.678;6.560;2022-09-13T05:53:46;1.70;;;1.60;;
20090;SDS011;10205;49.678;6.560;2022-09-13T05:56:17;2.55;;;1.58;;
20090;SDS011;10205;49.678;6.560;2022-09-13T05:58:47;2.05;;;1.67;;
20090;SDS011;10205;49.678;6.560;2022-09-13T06:01:17;5.45;;;2.10;;
20090;SDS011;10205;49.678;6.560;2022-09-13T06:03:46;1.92;;;1.50;;
20090;SDS011;10205;49.678;6.560;2022-09-13T06:06:16;1.58;;;1.25;;
20090;SDS011;10205;49.678;6.560;2022-09-13T06:08:44;3.20;;;1.52;;
20090;SDS011;10205;49.678;6.560;2022-09-13T06:11:16;5.72;;;1.83;;
20090;SDS011;10205;49.678;6.560;2022-09-13T06:13:44;1.65;;;1.40;;
20090;SDS011;10205;49.678;6.560;2022-09-13T06:16:11;1.60;;;1.50;;
20090;SDS011;10205;49.678;6.560;2022-09-13T06:18:40;4.15;;;2.10;;
20090;SDS011;10205;49.678;6.560;2022-09-13T06:21:08;2.00;;;1.80;;
20090;SDS011;10205;49.678;6.560;2022-09-13T06:23:43;2.47;;;2.25;;
20090;SDS011;10205;49.678;6.560;2022-09-13T06:26:11;3.42;;;2.17;;
20090;SDS011;10205;49.678;6.560;2022-09-13T06:28:40;2.25;;;2.00;;
20090;SDS011;10205;49.678;6.560;2022-09-13T06:31:09;3.85;;;1.88;;
20090;SDS011;10205;49.678;6.560;2022-09-13T06:33:39;2.95;;;2.50;;
20090;SDS011;10205;49.678;6.560;2022-09-13T06:36:09;2.00;;;1.80;;
20090;SDS011;10205;49.678;6.560;2022-09-13T06:38:38;3.08;;;2.20;;
20090;SDS011;10205;49.678;6.560;2022-09-13T06:41:08;2.63;;;2.35;;
20090;SDS011;10205;49.678;6.560;2022-09-13T06:43:37;5.07;;;2.70;;
20090;SDS011;10205;49.678;6.560;2022-09-13T06:46:07;3.17;;;2.00;;
20090;SDS011;10205;49.678;6.560;2022-09-13T06:48:38;4.78;;;2.70;;
20090;SDS011;10205;49.678;6.560;2022-09-13T06:51:08;2.80;;;2.47;;
20090;SDS011;10205;49.678;6.560;2022-09-13T06:53:37;5.88;;;2.90;;
20090;SDS011;10205;49.678;6.560;2022-09-13T06:56:08;6.50;;;3.08;;
20090;SDS011;10205;49.678;6.560;2022-09-13T06:58:38;6.38;;;2.67;;
20090;SDS011;10205;49.678;6.560;2022-09-13T07:01:09;6.97;;;2.50;;
20090;SDS011;10205;49.678;6.560;2022-09-13T07:03:39;3.17;;;2.88;;
20090;SDS011;10205;49.678;6.560;2022-09-13T07:06:09;4.03;;;3.30;;
20090;SDS011;10205;49.678;6.560;2022-09-13T07:08:39;6.60;;;3.30;;
20090;SDS011;10205;49.678;6.560;2022-09-13T07:11:09;5.45;;;2.97;;
20090;SDS011;10205;49.678;6.560;2022-09-13T07:13:38;22.63;;;3.38;;
20090;SDS011;10205;49.678;6.560;2022-09-13T07:16:07;4.25;;;2.83;;
20090;SDS011;10205;49.678;6.560;2022-09-13T07:18:36;3.78;;;2.97;;
20090;SDS011;10205;49.678;6.560;2022-09-13T07:21:07;6.55;;;3.25;;
20090;SDS011;10205;49.678;6.560;2022-09-13T07:23:37;6.53;;;3.63;;
20090;SDS011;10205;49.678;6.560;2022-09-13T07:26:05;5.13;;;3.30;;
20090;SDS011;10205;49.678;6.560;2022-09-13T07:28:36;3.70;;;3.28;;
20090;SDS011;10205;49.678;6.560;2022-09-13T07:31:06;3.65;;;3.20;;
20090;SDS011;10205;49.678;6.560;2022-09-13T07:33:36;4.03;;;3.13;;
20090;SDS011;10205;49.678;6.560;2022-09-13T07:36:05;6.15;;;3.10;;
20090;SDS011;10205;49.678;6.560;2022-09-13T07:38:33;4.10;;;3.08;;
20090;SDS011;10205;49.678;6.560;2022-09-13T07:41:02;5.18;;;3.35;;
20090;SDS011;10205;49.678;6.560;2022-09-13T07:43:33;3.30;;;3.00;;
20090;SDS011;10205;49.678;6.560;2022-09-13T07:46:03;3.70;;;2.63;;
20090;SDS011;10205;49.678;6.560;2022-09-13T07:48:32;4.05;;;3.42;;
20090;SDS011;10205;49.678;6.560;2022-09-13T07:51:02;8.18;;;3.28;;
20090;SDS011;10205;49.678;6.560;2022-09-13T07:53:32;3.20;;;2.90;;
20090;SDS011;10205;49.678;6.560;2022-09-13T07:56:02;3.42;;;2.88;;
20090;SDS011;10205;49.678;6.560;2022-09-13T07:58:31;4.65;;;3.00;;
20090;SDS011;10205;49.678;6.560;2022-09-13T08:01:04;6.90;;;2.80;;
20090;SDS011;10205;49.678;6.560;2022-09-13T08:03:34;4.20;;;2.70;;
20090;SDS011;10205;49.678;6.560;2022-09-13T08:06:02;3.35;;;2.90;;
20090;SDS011;10205;49.678;6.560;2022-09-13T08:08:32;3.88;;;3.05;;
20090;SDS011;10205;49.678;6.560;2022-09-13T08:11:00;6.30;;;3.28;;
20090;SDS011;10205;49.678;6.560;2022-09-13T08:13:30;4.68;;;2.80;;
20090;SDS011;10205;49.678;6.560;2022-09-13T08:15:59;4.15;;;3.10;;
20090;SDS011;10205;49.678;6.560;2022-09-13T08:18:30;4.50;;;2.60;;
20090;SDS011;10205;49.678;6.560;2022-09-13T08:20:58;5.03;;;2.80;;
20090;SDS011;10205;49.678;6.560;2022-09-13T08:23:26;13.27;;;3.60;;
20090;SDS011;10205;49.678;6.560;2022-09-13T08:25:54;2.60;;;2.35;;
20090;SDS011;10205;49.678;6.560;2022-09-13T08:28:30;4.57;;;2.83;;
20090;SDS011;10205;49.678;6.560;2022-09-13T08:31:02;5.00;;;3.00;;
20090;SDS011;10205;49.678;6.560;2022-09-13T08:33:32;5.85;;;3.50;;
20090;SDS011;10205;49.678;6.560;2022-09-13T08:36:00;3.40;;;2.90;;
20090;SDS011;10205;49.678;6.560;2022-09-13T08:38:29;3.40;;;2.80;;
20090;SDS011;10205;49.678;6.560;2022-09-13T08:40:57;8.40;;;3.80;;
20090;SDS011;10205;49.678;6.560;2022-09-13T08:43:33;5.80;;;3.20;;
20090;SDS011;10205;49.678;6.560;2022-09-13T08:46:13;6.70;;;3.50;;
20090;SDS011;10205;49.678;6.560;2022-09-13T08:48:51;4.90;;;2.85;;
20090;SDS011;10205;49.678;6.560;2022-09-13T08:51:27;3.88;;;2.42;;
20090;SDS011;10205;49.678;6.560;2022-09-13T08:54:00;5.65;;;2.67;;
20090;SDS011;10205;49.678;6.560;2022-09-13T08:56:33;5.35;;;3.10;;
20090;SDS011;10205;49.678;6.560;2022-09-13T08:59:30;3.97;;;2.80;;
20090;SDS011;10205;49.678;6.560;2022-09-13T09:02:22;2.95;;;2.70;;
20090;SDS011;10205;49.678;6.560;2022-09-13T09:05:11;5.63;;;2.58;;
20090;SDS011;10205;49.678;6.560;2022-09-13T09:07:44;3.78;;;2.40;;
20090;SDS011;10205;49.678;6.560;2022-09-13T09:10:17;3.28;;;2.80;;
20090;SDS011;10205;49.678;6.560;2022-09-13T09:12:49;5.72;;;2.70;;
20090;SDS011;10205;49.678;6.560;2022-09-13T09:15:23;3.47;;;2.78;;
20090;SDS011;10205;49.678;6.560;2022-09-13T09:17:58;2.83;;;2.53;;
20090;SDS011;10205;49.678;6.560;2022-09-13T09:20:35;3.47;;;2.72;;
20090;SDS011;10205;49.678;6.560;2022-09-13T09:23:07;3.83;;;2.78;;
20090;SDS011;10205;49.678;6.560;2022-09-13T09:25:43;5.60;;;2.30;;
20090;SDS011;10205;49.678;6.560;2022-09-13T09:28:12;2.80;;;2.50;;
20090;SDS011;10205;49.678;6.560;2022-09-13T09:30:45;3.50;;;2.55;;
20090;SDS011;10205;49.678;6.560;2022-09-13T09:33:35;3.97;;;2.40;;
20090;SDS011;10205;49.678;6.560;2022-09-13T09:36:22;4.50;;;2.60;;
20090;SDS011;10205;49.678;6.560;2022-09-13T09:39:02;4.65;;;2.45;;
20090;SDS011;10205;49.678;6.560;2022-09-13T09:41:31;2.55;;;2.33;;
20090;SDS011;10205;49.678;6.560;2022-09-13T09:44:05;3.40;;;2.35;;
20090;SDS011;10205;49.678;6.560;2022-09-13T09:46:45;2.97;;;2.55;;
20090;SDS011;10205;49.678;6.560;2022-09-13T09:49:17;2.40;;;2.20;;
20090;SDS011;10205;49.678;6.560;2022-09-13T09:52:11;2.50;;;2.30;;
20090;SDS011;10205;49.678;6.560;2022-09-13T09:54:43;3.30;;;2.65;;
20090;SDS011;10205;49.678;6.560;2022-09-13T09:57:12;2.97;;;2.55;;
20090;SDS011;10205;49.678;6.560;2022-09-13T09:59:39;2.22;;;1.95;;
20090;SDS011;10205;49.678;6.560;2022-09-13T10:02:12;2.55;;;2.08;;
20090;SDS011;10205;49.678;6.560;2022-09-13T10:04:52;3.65;;;2.42;;
20090;SDS011;10205;49.678;6.560;2022-09-13T10:07:25;2.38;;;2.10;;
20090;SDS011;10205;49.678;6.560;2022-09-13T10:09:58;3.05;;;2.25;;
20090;SDS011;10205;49.678;6.560;2022-09-13T10:12:30;2.75;;;2.08;;
20090;SDS011;10205;49.678;6.560;2022-09-13T10:15:05;2.78;;;2.25;;
20090;SDS011;10205;49.678;6.560;2022-09-13T10:17:42;3.63;;;2.03;;
20090;SDS011;10205;49.678;6.560;2022-09-13T10:20:26;2.78;;;2.55;;
20090;SDS011;10205;49.678;6.560;2022-09-13T10:25:55;2.20;;;2.03;;
20090;SDS011;10205;49.678;6.560;2022-09-13T10:28:33;2.47;;;2.28;;
20090;SDS011;10205;49.678;6.560;2022-09-13T10:31:07;2.47;;;2.28;;
20090;SDS011;10205;49.678;6.560;2022-09-13T10:33:39;3.42;;;2.10;;
20090;SDS011;10205;49.678;6.560;2022-09-13T10:36:11;2.70;;;2.15;;
20090;SDS011;10205;49.678;6.560;2022-09-13T10:38:46;3.80;;;2.22;;
20090;SDS011;10205;49.678;6.560;2022-09-13T10:41:25;2.97;;;2.30;;
20090;SDS011;10205;49.678;6.560;2022-09-13T10:43:55;2.22;;;2.00;;
20090;SDS011;10205;49.678;6.560;2022-09-13T10:46:24;5.35;;;2.63;;
20090;SDS011;10205;49.678;6.560;2022-09-13T10:48:55;2.47;;;1.95;;
20090;SDS011;10205;49.678;6.560;2022-09-13T10:51:33;6.28;;;2.38;;
20090;SDS011;10205;49.678;6.560;2022-09-13T10:54:15;3.70;;;2.28;;
20090;SDS011;10205;49.678;6.560;2022-09-13T10:56:46;2.70;;;2.08;;
20090;SDS011;10205;49.678;6.560;2022-09-13T10:59:21;2.35;;;2.10;;
20090;SDS011;10205;49.678;6.560;2022-09-13T11:01:55;2.60;;;1.90;;
20090;SDS011;10205;49.678;6.560;2022-09-13T11:05:00;2.30;;;2.10;;
20090;SDS011;10205;49.678;6.560;2022-09-13T11:07:46;3.65;;;1.92;;
20090;SDS011;10205;49.678;6.560;2022-09-13T11:10:34;3.55;;;2.08;;
20090;SDS011;10205;49.678;6.560;2022-09-13T11:13:13;3.70;;;2.05;;
20090;SDS011;10205;49.678;6.560;2022-09-13T11:15:55;6.40;;;1.70;;
20090;SDS011;10205;49.678;6.560;2022-09-13T11:21:37;4.15;;;1.77;;
20090;SDS011;10205;49.678;6.560;2022-09-13T11:27:27;2.10;;;1.90;;
20090;SDS011;10205;49.678;6.560;2022-09-13T11:30:09;2.30;;;1.90;;
20090;SDS011;10205;49.678;6.560;2022-09-13T11:32:48;4.60;;;2.17;;
20090;SDS011;10205;49.678;6.560;2022-09-13T11:35:48;2.10;;;1.90;;
20090;SDS011;10205;49.678;6.560;2022-09-13T11:38:44;2.53;;;2.30;;
20090;SDS011;10205;49.678;6.560;2022-09-13T11:41:30;6.18;;;2.00;;
20090;SDS011;10205;49.678;6.560;2022-09-13T11:44:25;2.50;;;2.28;;
20090;SDS011;10205;49.678;6.560;2022-09-13T11:47:15;3.45;;;2.03;;
20090;SDS011;10205;49.678;6.560;2022-09-13T11:50:01;3.13;;;2.20;;
20090;SDS011;10205;49.678;6.560;2022-09-13T11:52:50;2.22;;;2.03;;
20090;SDS011;10205;49.678;6.560;2022-09-13T11:55:33;2.28;;;2.08;;
20090;SDS011;10205;49.678;6.560;2022-09-13T11:58:09;4.97;;;2.10;;
20090;SDS011;10205;49.678;6.560;2022-09-13T12:00:45;3.20;;;2.47;;
20090;SDS011;10205;49.678;6.560;2022-09-13T12:03:20;4.93;;;2.53;;
20090;SDS011;10205;49.678;6.560;2022-09-13T12:05:55;3.35;;;2.30;;
20090;SDS011;10205;49.678;6.560;2022-09-13T12:08:30;5.95;;;2.60;;
20090;SDS011;10205;49.678;6.560;2022-09-13T12:11:03;2.88;;;2.22;;
20090;SDS011;10205;49.678;6.560;2022-09-13T12:13:39;4.68;;;2.47;;
20090;SDS011;10205;49.678;6.560;2022-09-13T12:16:12;3.25;;;2.33;;
20090;SDS011;10205;49.678;6.560;2022-09-13T12:18:49;2.97;;;2.40;;
20090;SDS011;10205;49.678;6.560;2022-09-13T12:21:23;2.60;;;1.75;;
20090;SDS011;10205;49.678;6.560;2022-09-13T12:23:57;2.75;;;2.20;;
20090;SDS011;10205;49.678;6.560;2022-09-13T12:26:32;2.55;;;2.08;;
20090;SDS011;10205;49.678;6.560;2022-09-13T12:29:11;3.08;;;2.70;;
20090;SDS011;10205;49.678;6.560;2022-09-13T12:31:47;4.65;;;3.33;;
20090;SDS011;10205;49.678;6.560;2022-09-13T12:34:16;4.78;;;3.50;;
20090;SDS011;10205;49.678;6.560;2022-09-13T12:36:54;4.32;;;2.92;;
20090;SDS011;10205;49.678;6.560;2022-09-13T12:43:06;6.43;;;2.85;;
20090;SDS011;10205;49.678;6.560;2022-09-13T12:52:38;4.32;;;2.63;;
20090;SDS011;10205;49.678;6.560;2022-09-13T12:55:19;3.75;;;2.40;;
20090;SDS011;10205;49.678;6.560;2022-09-13T12:58:26;4.20;;;2.53;;
20090;SDS011;10205;49.678;6.560;2022-09-13T13:01:21;6.25;;;2.65;;
20090;SDS011;10205;49.678;6.560;2022-09-13T13:03:52;4.03;;;2.88;;
20090;SDS011;10205;49.678;6.560;2022-09-13T13:06:26;4.28;;;2.90;;
20090;SDS011;10205;49.678;6.560;2022-09-13T13:09:01;6.35;;;2.80;;
20090;SDS011;10205;49.678;6.560;2022-09-13T13:11:42;3.85;;;2.83;;
20090;SDS011;10205;49.678;6.560;2022-09-13T13:23:47;4.90;;;2.60;;
20090;SDS011;10205;49.678;6.560;2022-09-13T13:27:34;9.77;;;3.05;;
20090;SDS011;10205;49.678;6.560;2022-09-13T13:33:14;4.57;;;3.10;;
20090;SDS011;10205;49.678;6.560;2022-09-13T13:35:45;5.90;;;3.05;;
20090;SDS011;10205;49.678;6.560;2022-09-13T13:38:14;5.07;;;2.97;;
20090;SDS011;10205;49.678;6.560;2022-09-13T13:53:50;3.53;;;2.47;;
20090;SDS011;10205;49.678;6.560;2022-09-13T13:56:24;5.88;;;2.42;;
20090;SDS011;10205;49.678;6.560;2022-09-13T13:59:14;2.80;;;2.03;;
20090;SDS011;10205;49.678;6.560;2022-09-13T14:01:50;4.07;;;2.40;;
20090;SDS011;10205;49.678;6.560;2022-09-13T14:10:56;5.28;;;2.53;;
20090;SDS011;10205;49.678;6.560;2022-09-13T14:13:40;7.00;;;2.28;;
20090;SDS011;10205;49.678;6.560;2022-09-13T14:16:19;4.47;;;2.72;;
20090;SDS011;10205;49.678;6.560;2022-09-13T14:19:08;3.33;;;2.10;;
20090;SDS011;10205;49.678;6.560;2022-09-13T14:24:38;2.30;;;2.10;;
20090;SDS011;10205;49.678;6.560;2022-09-13T14:27:12;3.30;;;2.40;;
20090;SDS011;10205;49.678;6.560;2022-09-13T14:29:45;2.35;;;1.88;;
20090;SDS011;10205;49.678;6.560;2022-09-13T14:32:16;2.28;;;2.08;;
20090;SDS011;10205;49.678;6.560;2022-09-13T14:34:52;2.80;;;2.15;;
20090;SDS011;10205;49.678;6.560;2022-09-13T14:37:25;5.40;;;2.80;;
20090;SDS011;10205;49.678;6.560;2022-09-13T14:39:56;6.55;;;2.80;;
20090;SDS011;10205;49.678;6.560;2022-09-13T14:42:25;3.72;;;2.42;;
20090;SDS011;10205;49.678;6.560;2022-09-13T14:45:09;2.72;;;2.17;;
20090;SDS011;10205;49.678;6.560;2022-09-13T14:47:41;3.05;;;2.28;;
20090;SDS011;10205;49.678;6.560;2022-09-13T14:50:19;2.92;;;2.28;;
20090;SDS011;10205;49.678;6.560;2022-09-13T14:52:53;3.22;;;2.28;;
20090;SDS011;10205;49.678;6.560;2022-09-13T14:55:25;4.75;;;2.45;;
20090;SDS011;10205;49.678;6.560;2022-09-13T14:57:57;3.90;;;2.28;;
20090;SDS011;10205;49.678;6.560;2022-09-13T15:00:29;2.67;;;2.05;;
20090;SDS011;10205;49.678;6.560;2022-09-13T15:03:10;4.45;;;2.13;;
20090;SDS011;10205;49.678;6.560;2022-09-13T15:05:41;3.10;;;2.00;;
20090;SDS011;10205;49.678;6.560;2022-09-13T15:08:32;3.35;;;2.15;;
20090;SDS011;10205;49.678;6.560;2022-09-13T15:11:13;4.25;;;2.30;;
20090;SDS011;10205;49.678;6.560;2022-09-13T15:13:59;3.10;;;2.35;;
20090;SDS011;10205;49.678;6.560;2022-09-13T15:16:50;4.03;;;2.17;;
20090;SDS011;10205;49.678;6.560;2022-09-13T15:19:35;2.10;;;1.90;;
20090;SDS011;10205;49.678;6.560;2022-09-13T15:22:17;4.25;;;2.70;;
20090;SDS011;10205;49.678;6.560;2022-09-13T15:24:49;2.75;;;2.05;;
20090;SDS011;10205;49.678;6.560;2022-09-13T15:27:24;6.75;;;2.42;;
20090;SDS011;10205;49.678;6.560;2022-09-13T15:29:54;2.70;;;2.03;;
20090;SDS011;10205;49.678;6.560;2022-09-13T15:32:30;3.88;;;2.22;;
20090;SDS011;10205;49.678;6.560;2022-09-13T15:35:14;2.45;;;2.05;;
20090;SDS011;10205;49.678;6.560;2022-09-13T15:37:44;3.33;;;2.13;;
20090;SDS011;10205;49.678;6.560;2022-09-13T15:40:16;3.60;;;2.25;;
20090;SDS011;10205;49.678;6.560;2022-09-13T15:42:46;3.50;;;2.33;;
20090;SDS011;10205;49.678;6.560;2022-09-13T15:45:15;2.53;;;2.10;;
20090;SDS011;10205;49.678;6.560;2022-09-13T15:47:46;4.05;;;2.08;;
20090;SDS011;10205;49.678;6.560;2022-09-13T15:50:19;3.22;;;2.10;;
20090;SDS011;10205;49.678;6.560;2022-09-13T15:52:51;3.25;;;1.50;;
20090;SDS011;10205;49.678;6.560;2022-09-13T15:55:18;2.78;;;1.90;;
20090;SDS011;10205;49.678;6.560;2022-09-13T15:57:46;2.33;;;1.77;;
20090;SDS011;10205;49.678;6.560;2022-09-13T16:00:14;2.88;;;2.20;;
20090;SDS011;10205;49.678;6.560;2022-09-13T16:02:46;3.58;;;2.33;;
20090;SDS011;10205;49.678;6.560;2022-09-13T16:05:14;3.13;;;2.45;;
20090;SDS011;10205;49.678;6.560;2022-09-13T16:07:41;2.95;;;1.92;;
20090;SDS011;10205;49.678;6.560;2022-09-13T16:10:10;2.40;;;1.85;;
20090;SDS011;10205;49.678;6.560;2022-09-13T16:12:41;5.05;;;2.00;;
20090;SDS011;10205;49.678;6.560;2022-09-13T16:15:09;3.97;;;2.10;;
20090;SDS011;10205;49.678;6.560;2022-09-13T16:17:38;2.00;;;1.80;;
20090;SDS011;10205;49.678;6.560;2022-09-13T16:20:10;2.78;;;1.92;;
20090;SDS011;10205;49.678;6.560;2022-09-13T16:22:41;4.63;;;1.80;;
20090;SDS011;10205;49.678;6.560;2022-09-13T16:25:08;2.70;;;2.00;;
20090;SDS011;10205;49.678;6.560;2022-09-13T16:27:38;2.92;;;2.08;;
20090;SDS011;10205;49.678;6.560;2022-09-13T16:30:09;2.72;;;1.88;;
20090;SDS011;10205;49.678;6.560;2022-09-13T16:32:44;3.08;;;2.10;;
20090;SDS011;10205;49.678;6.560;2022-09-13T16:35:13;3.35;;;2.35;;